sensor_id;sensor_type;location;lat;lon;timestamp;temperature;humidity
70550;DHT22;58101;48.658;2.328;2023-10-19T00:00:36;16.00;99.90
70550;DHT22;58101;48.658;2.328;2023-10-19T00:03:04;16.10;99.90
70550;DHT22;58101;48.658;2.328;2023-10-19T00:05:32;16.00;99.90
70550;DHT22;58101;48.658;2.328;2023-10-19T00:08:02;16.00;99.90
70550;DHT22;58101;48.658;2.328;2023-10-19T00:10:48;16.00;99.90
70550;DHT22;58101;48.658;2.328;2023-10-19T00:13:21;16.00;99.90
70550;DHT22;58101;48.658;2.328;2023-10-19T00:15:48;16.10;99.90
70550;DHT22;58101;48.658;2.328;2023-10-19T00:18:15;16.00;99.90
70550;DHT22;58101;48.658;2.328;2023-10-19T00:20:42;16.10;99.90
70550;DHT22;58101;48.658;2.328;2023-10-19T00:23:10;16.10;99.90
70550;DHT22;58101;48.658;2.328;2023-10-19T00:25:39;16.10;99.90
70550;DHT22;58101;48.658;2.328;2023-10-19T00:28:07;16.10;99.90
70550;DHT22;58101;48.658;2.328;2023-10-19T00:30:33;16.20;99.90
70550;DHT22;58101;48.658;2.328;2023-10-19T00:33:04;16.10;99.90
70550;DHT22;58101;48.658;2.328;2023-10-19T00:35:30;16.10;99.90
70550;DHT22;58101;48.658;2.328;2023-10-19T00:38:08;16.10;99.90
70550;DHT22;58101;48.658;2.328;2023-10-19T00:40:53;16.10;99.90
70550;DHT22;58101;48.658;2.328;2023-10-19T00:43:29;16.10;99.90
70550;DHT22;58101;48.658;2.328;2023-10-19T00:45:58;16.10;99.90
70550;DHT22;58101;48.658;2.328;2023-10-19T00:48:27;16.10;99.90
70550;DHT22;58101;48.658;2.328;2023-10-19T00:50:54;16.10;99.90
70550;DHT22;58101;48.658;2.328;2023-10-19T00:53:36;16.10;99.90
70550;DHT22;58101;48.658;2.328;2023-10-19T00:56:04;16.10;99.90
70550;DHT22;58101;48.658;2.328;2023-10-19T00:58:32;16.10;99.90
70550;DHT22;58101;48.658;2.328;2023-10-19T01:01:04;16.10;99.90
70550;DHT22;58101;48.658;2.328;2023-10-19T01:03:33;16.10;99.90
70550;DHT22;58101;48.658;2.328;2023-10-19T01:06:05;16.10;99.90
70550;DHT22;58101;48.658;2.328;2023-10-19T01:08:36;16.10;99.90
70550;DHT22;58101;48.658;2.328;2023-10-19T01:11:10;16.10;99.90
70550;DHT22;58101;48.658;2.328;2023-10-19T01:13:40;16.10;99.90
70550;DHT22;58101;48.658;2.328;2023-10-19T01:16:16;16.10;99.90
70550;DHT22;58101;48.658;2.328;2023-10-19T01:18:51;16.10;99.90
70550;DHT22;58101;48.658;2.328;2023-10-19T01:21:23;16.10;99.90
70550;DHT22;58101;48.658;2.328;2023-10-19T01:24:06;16.10;99.90
70550;DHT22;58101;48.658;2.328;2023-10-19T01:26:33;16.00;99.90
70550;DHT22;58101;48.658;2.328;2023-10-19T01:29:02;16.10;99.90
70550;DHT22;58101;48.658;2.328;2023-10-19T01:31:38;16.00;99.90
70550;DHT22;58101;48.658;2.328;2023-10-19T01:34:17;16.00;99.90
70550;DHT22;58101;48.658;2.328;2023-10-19T01:36:46;16.00;99.90
70550;DHT22;58101;48.658;2.328;2023-10-19T01:39:16;16.00;99.90
70550;DHT22;58101;48.658;2.328;2023-10-19T01:41:44;15.90;99.90
70550;DHT22;58101;48.658;2.328;2023-10-19T01:44:10;15.90;99.90
70550;DHT22;58101;48.658;2.328;2023-10-19T01:46:38;15.90;99.90
70550;DHT22;58101;48.658;2.328;2023-10-19T01:49:05;15.70;99.90
70550;DHT22;58101;48.658;2.328;2023-10-19T01:51:32;15.70;99.90
70550;DHT22;58101;48.658;2.328;2023-10-19T01:53:59;15.80;99.90
70550;DHT22;58101;48.658;2.328;2023-10-19T01:56:26;15.80;99.90
70550;DHT22;58101;48.658;2.328;2023-10-19T01:58:52;15.80;99.90
70550;DHT22;58101;48.658;2.328;2023-10-19T02:01:20;15.80;99.90
70550;DHT22;58101;48.658;2.328;2023-10-19T02:03:49;15.70;99.90
70550;DHT22;58101;48.658;2.328;2023-10-19T02:06:20;15.70;99.90
70550;DHT22;58101;48.658;2.328;2023-10-19T02:08:51;15.70;99.90
70550;DHT22;58101;48.658;2.328;2023-10-19T02:11:23;15.70;99.90
70550;DHT22;58101;48.658;2.328;2023-10-19T02:13:51;15.60;99.90
70550;DHT22;58101;48.658;2.328;2023-10-19T02:16:18;15.60;99.90
70550;DHT22;58101;48.658;2.328;2023-10-19T02:18:58;15.60;99.90
70550;DHT22;58101;48.658;2.328;2023-10-19T02:21:24;15.50;99.90
70550;DHT22;58101;48.658;2.328;2023-10-19T02:23:56;15.50;99.90
70550;DHT22;58101;48.658;2.328;2023-10-19T02:26:23;15.50;99.90
70550;DHT22;58101;48.658;2.328;2023-10-19T02:28:51;15.40;99.90
70550;DHT22;58101;48.658;2.328;2023-10-19T02:31:18;15.50;99.90
70550;DHT22;58101;48.658;2.328;2023-10-19T02:33:46;15.50;99.90
70550;DHT22;58101;48.658;2.328;2023-10-19T02:36:14;15.50;99.90
70550;DHT22;58101;48.658;2.328;2023-10-19T02:38:42;15.50;99.90
70550;DHT22;58101;48.658;2.328;2023-10-19T02:41:23;15.50;99.90
70550;DHT22;58101;48.658;2.328;2023-10-19T02:43:49;15.50;99.90
70550;DHT22;58101;48.658;2.328;2023-10-19T02:46:30;15.40;99.90
70550;DHT22;58101;48.658;2.328;2023-10-19T02:49:00;15.50;99.90
70550;DHT22;58101;48.658;2.328;2023-10-19T02:51:26;15.50;99.90
70550;DHT22;58101;48.658;2.328;2023-10-19T02:53:51;15.50;99.90
70550;DHT22;58101;48.658;2.328;2023-10-19T02:56:17;15.50;99.90
70550;DHT22;58101;48.658;2.328;2023-10-19T02:58:45;15.50;99.90
70550;DHT22;58101;48.658;2.328;2023-10-19T03:01:21;15.50;99.90
70550;DHT22;58101;48.658;2.328;2023-10-19T03:03:57;15.50;99.90
70550;DHT22;58101;48.658;2.328;2023-10-19T03:06:27;15.50;99.90
70550;DHT22;58101;48.658;2.328;2023-10-19T03:08:57;15.50;99.90
70550;DHT22;58101;48.658;2.328;2023-10-19T03:11:48;15.60;99.90
70550;DHT22;58101;48.658;2.328;2023-10-19T03:14:18;15.40;99.90
70550;DHT22;58101;48.658;2.328;2023-10-19T03:16:44;15.50;99.90
70550;DHT22;58101;48.658;2.328;2023-10-19T03:19:10;15.40;99.90
70550;DHT22;58101;48.658;2.328;2023-10-19T03:21:38;15.40;99.90
70550;DHT22;58101;48.658;2.328;2023-10-19T03:24:14;15.40;99.90
70550;DHT22;58101;48.658;2.328;2023-10-19T03:27:05;15.40;99.90
70550;DHT22;58101;48.658;2.328;2023-10-19T03:29:51;15.40;99.90
70550;DHT22;58101;48.658;2.328;2023-10-19T03:32:21;15.40;99.90
70550;DHT22;58101;48.658;2.328;2023-10-19T03:34:54;15.40;99.90
70550;DHT22;58101;48.658;2.328;2023-10-19T03:37:26;15.40;99.90
70550;DHT22;58101;48.658;2.328;2023-10-19T03:39:54;15.40;99.90
70550;DHT22;58101;48.658;2.328;2023-10-19T03:42:24;15.40;99.90
70550;DHT22;58101;48.658;2.328;2023-10-19T03:44:52;15.40;99.90
70550;DHT22;58101;48.658;2.328;2023-10-19T03:47:22;15.40;99.90
70550;DHT22;58101;48.658;2.328;2023-10-19T03:49:52;15.40;99.90
70550;DHT22;58101;48.658;2.328;2023-10-19T03:52:18;15.40;99.90
70550;DHT22;58101;48.658;2.328;2023-10-19T03:54:44;15.40;99.90
70550;DHT22;58101;48.658;2.328;2023-10-19T03:57:11;15.40;99.90
70550;DHT22;58101;48.658;2.328;2023-10-19T03:59:41;15.40;99.90
70550;DHT22;58101;48.658;2.328;2023-10-19T04:02:08;15.40;99.90
70550;DHT22;58101;48.658;2.328;2023-10-19T04:04:42;15.40;99.90
70550;DHT22;58101;48.658;2.328;2023-10-19T04:07:13;15.40;99.90
70550;DHT22;58101;48.658;2.328;2023-10-19T04:09:57;15.40;99.90
70550;DHT22;58101;48.658;2.328;2023-10-19T04:12:32;15.40;99.90
70550;DHT22;58101;48.658;2.328;2023-10-19T04:14:58;15.40;99.90
70550;DHT22;58101;48.658;2.328;2023-10-19T04:17:35;15.40;99.90
70550;DHT22;58101;48.658;2.328;2023-10-19T04:20:05;15.40;99.90
70550;DHT22;58101;48.658;2.328;2023-10-19T04:22:46;15.40;99.90
70550;DHT22;58101;48.658;2.328;2023-10-19T04:25:16;15.30;99.90
70550;DHT22;58101;48.658;2.328;2023-10-19T04:27:45;15.40;99.90
70550;DHT22;58101;48.658;2.328;2023-10-19T04:30:12;15.30;99.90
70550;DHT22;58101;48.658;2.328;2023-10-19T04:32:45;15.30;99.90
70550;DHT22;58101;48.658;2.328;2023-10-19T04:35:12;15.30;99.90
70550;DHT22;58101;48.658;2.328;2023-10-19T04:37:47;15.30;99.90
70550;DHT22;58101;48.658;2.328;2023-10-19T04:40:12;15.30;99.90
70550;DHT22;58101;48.658;2.328;2023-10-19T04:42:38;15.30;99.90
70550;DHT22;58101;48.658;2.328;2023-10-19T04:45:05;15.20;99.90
70550;DHT22;58101;48.658;2.328;2023-10-19T04:47:34;15.20;99.90
70550;DHT22;58101;48.658;2.328;2023-10-19T04:50:05;15.20;99.90
70550;DHT22;58101;48.658;2.328;2023-10-19T04:52:32;15.20;99.90
70550;DHT22;58101;48.658;2.328;2023-10-19T04:54:58;15.20;99.90
70550;DHT22;58101;48.658;2.328;2023-10-19T04:57:24;15.20;99.90
70550;DHT22;58101;48.658;2.328;2023-10-19T04:59:51;15.20;99.90
70550;DHT22;58101;48.658;2.328;2023-10-19T05:02:17;15.30;99.90
70550;DHT22;58101;48.658;2.328;2023-10-19T05:04:43;15.20;99.90
70550;DHT22;58101;48.658;2.328;2023-10-19T05:07:09;15.20;99.90
70550;DHT22;58101;48.658;2.328;2023-10-19T05:09:38;15.20;99.90
70550;DHT22;58101;48.658;2.328;2023-10-19T05:12:05;15.20;99.90
70550;DHT22;58101;48.658;2.328;2023-10-19T05:14:37;15.20;99.90
70550;DHT22;58101;48.658;2.328;2023-10-19T05:17:04;15.20;99.90
70550;DHT22;58101;48.658;2.328;2023-10-19T05:19:31;15.30;99.90
70550;DHT22;58101;48.658;2.328;2023-10-19T05:22:00;15.20;99.90
70550;DHT22;58101;48.658;2.328;2023-10-19T05:24:29;15.30;99.90
70550;DHT22;58101;48.658;2.328;2023-10-19T05:26:55;15.30;99.90
70550;DHT22;58101;48.658;2.328;2023-10-19T05:29:21;15.20;99.90
70550;DHT22;58101;48.658;2.328;2023-10-19T05:31:47;15.20;99.90
70550;DHT22;58101;48.658;2.328;2023-10-19T05:34:21;15.20;99.90
70550;DHT22;58101;48.658;2.328;2023-10-19T05:36:47;15.30;99.90
70550;DHT22;58101;48.658;2.328;2023-10-19T05:39:17;15.20;99.90
70550;DHT22;58101;48.658;2.328;2023-10-19T05:41:43;15.30;99.90
70550;DHT22;58101;48.658;2.328;2023-10-19T05:44:09;15.30;99.90
70550;DHT22;58101;48.658;2.328;2023-10-19T05:46:35;15.30;99.90
70550;DHT22;58101;48.658;2.328;2023-10-19T05:49:01;15.30;99.90
70550;DHT22;58101;48.658;2.328;2023-10-19T05:51:29;15.30;99.90
70550;DHT22;58101;48.658;2.328;2023-10-19T05:53:55;15.30;99.90
70550;DHT22;58101;48.658;2.328;2023-10-19T05:56:27;15.30;99.90
70550;DHT22;58101;48.658;2.328;2023-10-19T05:58:53;15.30;99.90
70550;DHT22;58101;48.658;2.328;2023-10-19T06:01:19;15.30;99.90
70550;DHT22;58101;48.658;2.328;2023-10-19T06:03:45;15.30;99.90
70550;DHT22;58101;48.658;2.328;2023-10-19T06:06:11;15.30;99.90
70550;DHT22;58101;48.658;2.328;2023-10-19T06:08:37;15.30;99.90
70550;DHT22;58101;48.658;2.328;2023-10-19T06:11:02;15.30;99.90
70550;DHT22;58101;48.658;2.328;2023-10-19T06:13:28;15.30;99.90
70550;DHT22;58101;48.658;2.328;2023-10-19T06:15:55;15.30;99.90
70550;DHT22;58101;48.658;2.328;2023-10-19T06:18:20;15.30;99.90
70550;DHT22;58101;48.658;2.328;2023-10-19T06:20:46;15.30;99.90
70550;DHT22;58101;48.658;2.328;2023-10-19T06:23:12;15.30;99.90
70550;DHT22;58101;48.658;2.328;2023-10-19T06:25:38;15.30;99.90
70550;DHT22;58101;48.658;2.328;2023-10-19T06:28:04;15.30;99.90
70550;DHT22;58101;48.658;2.328;2023-10-19T06:30:31;15.30;99.90
70550;DHT22;58101;48.658;2.328;2023-10-19T06:33:00;15.30;99.90
70550;DHT22;58101;48.658;2.328;2023-10-19T06:35:27;15.20;99.90
70550;DHT22;58101;48.658;2.328;2023-10-19T06:37:54;15.20;99.90
70550;DHT22;58101;48.658;2.328;2023-10-19T06:40:23;15.20;99.90
70550;DHT22;58101;48.658;2.328;2023-10-19T06:42:49;15.20;99.90
70550;DHT22;58101;48.658;2.328;2023-10-19T06:45:16;15.20;99.90
70550;DHT22;58101;48.658;2.328;2023-10-19T06:47:45;15.40;99.90
70550;DHT22;58101;48.658;2.328;2023-10-19T06:50:12;15.20;99.90
70550;DHT22;58101;48.658;2.328;2023-10-19T06:52:42;15.30;99.90
70550;DHT22;58101;48.658;2.328;2023-10-19T06:55:10;15.30;99.90
70550;DHT22;58101;48.658;2.328;2023-10-19T06:57:42;15.30;99.90
70550;DHT22;58101;48.658;2.328;2023-10-19T07:00:12;15.40;99.90
70550;DHT22;58101;48.658;2.328;2023-10-19T07:03:07;15.40;99.90
70550;DHT22;58101;48.658;2.328;2023-10-19T07:05:32;15.40;99.90
70550;DHT22;58101;48.658;2.328;2023-10-19T07:07:59;15.40;99.90
70550;DHT22;58101;48.658;2.328;2023-10-19T07:10:25;15.50;99.90
70550;DHT22;58101;48.658;2.328;2023-10-19T07:12:53;15.50;99.90
70550;DHT22;58101;48.658;2.328;2023-10-19T07:15:22;15.50;99.90
70550;DHT22;58101;48.658;2.328;2023-10-19T07:17:49;15.50;99.90
70550;DHT22;58101;48.658;2.328;2023-10-19T07:20:16;15.50;99.90
70550;DHT22;58101;48.658;2.328;2023-10-19T07:23:00;15.50;99.90
70550;DHT22;58101;48.658;2.328;2023-10-19T07:25:36;15.60;99.90
70550;DHT22;58101;48.658;2.328;2023-10-19T07:28:14;15.50;99.90
70550;DHT22;58101;48.658;2.328;2023-10-19T07:30:42;15.60;99.90
70550;DHT22;58101;48.658;2.328;2023-10-19T07:33:11;15.60;99.90
70550;DHT22;58101;48.658;2.328;2023-10-19T07:35:43;15.60;99.90
70550;DHT22;58101;48.658;2.328;2023-10-19T07:38:15;15.70;99.90
70550;DHT22;58101;48.658;2.328;2023-10-19T07:40:43;15.70;99.90
70550;DHT22;58101;48.658;2.328;2023-10-19T07:43:11;15.80;99.90
70550;DHT22;58101;48.658;2.328;2023-10-19T07:45:37;15.80;99.90
70550;DHT22;58101;48.658;2.328;2023-10-19T07:48:03;15.90;99.90
70550;DHT22;58101;48.658;2.328;2023-10-19T07:50:35;15.90;99.90
70550;DHT22;58101;48.658;2.328;2023-10-19T07:53:04;15.90;99.90
70550;DHT22;58101;48.658;2.328;2023-10-19T07:55:30;16.00;99.90
70550;DHT22;58101;48.658;2.328;2023-10-19T07:57:57;16.00;99.90
70550;DHT22;58101;48.658;2.328;2023-10-19T08:00:25;15.90;99.90
70550;DHT22;58101;48.658;2.328;2023-10-19T08:02:55;16.10;99.90
70550;DHT22;58101;48.658;2.328;2023-10-19T08:05:21;16.10;99.90
70550;DHT22;58101;48.658;2.328;2023-10-19T08:07:47;16.10;99.90
70550;DHT22;58101;48.658;2.328;2023-10-19T08:10:16;16.20;99.90
70550;DHT22;58101;48.658;2.328;2023-10-19T08:12:43;16.30;99.90
70550;DHT22;58101;48.658;2.328;2023-10-19T08:15:11;16.30;99.90
70550;DHT22;58101;48.658;2.328;2023-10-19T08:17:41;16.30;99.90
70550;DHT22;58101;48.658;2.328;2023-10-19T08:20:08;16.40;99.90
70550;DHT22;58101;48.658;2.328;2023-10-19T08:22:38;16.50;99.90
70550;DHT22;58101;48.658;2.328;2023-10-19T08:25:04;16.60;99.90
70550;DHT22;58101;48.658;2.328;2023-10-19T08:27:43;16.60;99.90
70550;DHT22;58101;48.658;2.328;2023-10-19T08:30:18;16.80;99.90
70550;DHT22;58101;48.658;2.328;2023-10-19T08:32:44;16.90;99.90
70550;DHT22;58101;48.658;2.328;2023-10-19T08:35:14;17.00;99.90
70550;DHT22;58101;48.658;2.328;2023-10-19T08:37:39;17.00;99.90
70550;DHT22;58101;48.658;2.328;2023-10-19T08:40:11;17.00;99.90
70550;DHT22;58101;48.658;2.328;2023-10-19T08:42:46;17.10;99.90
70550;DHT22;58101;48.658;2.328;2023-10-19T08:45:13;17.00;99.90
70550;DHT22;58101;48.658;2.328;2023-10-19T08:47:59;17.00;99.90
70550;DHT22;58101;48.658;2.328;2023-10-19T08:50:35;17.10;99.90
70550;DHT22;58101;48.658;2.328;2023-10-19T08:53:02;17.10;99.90
70550;DHT22;58101;48.658;2.328;2023-10-19T08:55:29;17.20;99.90
70550;DHT22;58101;48.658;2.328;2023-10-19T08:57:56;17.20;99.90
70550;DHT22;58101;48.658;2.328;2023-10-19T09:00:24;17.10;99.90
70550;DHT22;58101;48.658;2.328;2023-10-19T09:02:53;17.20;99.90
70550;DHT22;58101;48.658;2.328;2023-10-19T09:05:19;17.30;99.90
70550;DHT22;58101;48.658;2.328;2023-10-19T09:07:52;17.30;99.90
70550;DHT22;58101;48.658;2.328;2023-10-19T09:10:25;17.40;99.90
70550;DHT22;58101;48.658;2.328;2023-10-19T09:13:01;17.50;99.90
70550;DHT22;58101;48.658;2.328;2023-10-19T09:15:27;17.70;99.90
70550;DHT22;58101;48.658;2.328;2023-10-19T09:17:56;18.90;99.90
70550;DHT22;58101;48.658;2.328;2023-10-19T09:20:21;19.60;99.90
70550;DHT22;58101;48.658;2.328;2023-10-19T09:22:56;19.80;99.90
70550;DHT22;58101;48.658;2.328;2023-10-19T09:25:23;19.90;99.90
70550;DHT22;58101;48.658;2.328;2023-10-19T09:27:50;20.80;99.90
70550;DHT22;58101;48.658;2.328;2023-10-19T09:30:16;21.60;96.50
70550;DHT22;58101;48.658;2.328;2023-10-19T09:32:47;21.90;96.70
70550;DHT22;58101;48.658;2.328;2023-10-19T09:35:17;22.00;93.60
70550;DHT22;58101;48.658;2.328;2023-10-19T09:37:45;22.50;92.70
70550;DHT22;58101;48.658;2.328;2023-10-19T09:40:10;22.30;91.00
70550;DHT22;58101;48.658;2.328;2023-10-19T09:42:40;21.80;91.40
70550;DHT22;58101;48.658;2.328;2023-10-19T09:45:12;21.40;94.10
70550;DHT22;58101;48.658;2.328;2023-10-19T09:47:42;20.80;97.60
70550;DHT22;58101;48.658;2.328;2023-10-19T09:50:10;21.00;97.40
70550;DHT22;58101;48.658;2.328;2023-10-19T09:52:38;22.40;94.20
70550;DHT22;58101;48.658;2.328;2023-10-19T09:55:15;24.00;84.80
70550;DHT22;58101;48.658;2.328;2023-10-19T09:57:52;25.60;74.80
70550;DHT22;58101;48.658;2.328;2023-10-19T10:00:19;26.30;67.70
70550;DHT22;58101;48.658;2.328;2023-10-19T10:02:51;25.90;63.70
70550;DHT22;58101;48.658;2.328;2023-10-19T10:10:42;25.00;66.30
70550;DHT22;58101;48.658;2.328;2023-10-19T10:15:56;22.80;84.00
70550;DHT22;58101;48.658;2.328;2023-10-19T10:18:26;22.20;88.40
70550;DHT22;58101;48.658;2.328;2023-10-19T10:21:16;22.00;90.30
70550;DHT22;58101;48.658;2.328;2023-10-19T10:24:03;23.20;89.80
70550;DHT22;58101;48.658;2.328;2023-10-19T10:26:31;25.20;75.90
70550;DHT22;58101;48.658;2.328;2023-10-19T10:29:15;26.90;68.40
70550;DHT22;58101;48.658;2.328;2023-10-19T10:31:50;28.00;58.30
70550;DHT22;58101;48.658;2.328;2023-10-19T10:37:07;29.40;51.30
70550;DHT22;58101;48.658;2.328;2023-10-19T10:39:35;29.80;49.30
70550;DHT22;58101;48.658;2.328;2023-10-19T10:42:06;30.60;47.40
70550;DHT22;58101;48.658;2.328;2023-10-19T10:44:45;30.80;47.10
70550;DHT22;58101;48.658;2.328;2023-10-19T10:47:22;31.10;45.00
70550;DHT22;58101;48.658;2.328;2023-10-19T10:49:55;30.40;45.00
70550;DHT22;58101;48.658;2.328;2023-10-19T10:54:50;30.60;46.80
70550;DHT22;58101;48.658;2.328;2023-10-19T10:57:16;31.40;44.90
70550;DHT22;58101;48.658;2.328;2023-10-19T10:59:41;31.80;43.40
70550;DHT22;58101;48.658;2.328;2023-10-19T11:02:19;31.60;43.30
70550;DHT22;58101;48.658;2.328;2023-10-19T11:04:47;32.10;41.70
70550;DHT22;58101;48.658;2.328;2023-10-19T11:07:19;32.60;40.50
70550;DHT22;58101;48.658;2.328;2023-10-19T11:09:46;32.90;40.00
70550;DHT22;58101;48.658;2.328;2023-10-19T11:12:13;32.60;38.30
70550;DHT22;58101;48.658;2.328;2023-10-19T11:14:58;31.90;40.80
70550;DHT22;58101;48.658;2.328;2023-10-19T11:17:42;31.00;40.50
70550;DHT22;58101;48.658;2.328;2023-10-19T11:20:08;31.00;40.70
70550;DHT22;58101;48.658;2.328;2023-10-19T11:22:48;30.70;41.20
70550;DHT22;58101;48.658;2.328;2023-10-19T11:25:18;31.40;40.80
70550;DHT22;58101;48.658;2.328;2023-10-19T11:27:44;31.30;39.10
70550;DHT22;58101;48.658;2.328;2023-10-19T11:30:10;30.90;39.40
70550;DHT22;58101;48.658;2.328;2023-10-19T11:32:38;31.20;39.30
70550;DHT22;58101;48.658;2.328;2023-10-19T11:35:06;30.90;39.80
70550;DHT22;58101;48.658;2.328;2023-10-19T11:37:52;31.00;40.30
70550;DHT22;58101;48.658;2.328;2023-10-19T11:40:22;31.50;40.60
70550;DHT22;58101;48.658;2.328;2023-10-19T11:42:51;30.70;40.90
70550;DHT22;58101;48.658;2.328;2023-10-19T11:45:18;29.40;41.20
70550;DHT22;58101;48.658;2.328;2023-10-19T11:47:45;28.00;44.20
70550;DHT22;58101;48.658;2.328;2023-10-19T11:50:14;26.90;47.10
70550;DHT22;58101;48.658;2.328;2023-10-19T11:52:44;26.50;50.10
70550;DHT22;58101;48.658;2.328;2023-10-19T11:55:11;26.60;50.60
70550;DHT22;58101;48.658;2.328;2023-10-19T11:57:39;27.00;48.20
70550;DHT22;58101;48.658;2.328;2023-10-19T12:00:06;26.60;49.50
70550;DHT22;58101;48.658;2.328;2023-10-19T12:02:36;25.80;50.30
70550;DHT22;58101;48.658;2.328;2023-10-19T12:05:04;25.60;52.80
70550;DHT22;58101;48.658;2.328;2023-10-19T12:07:30;26.10;51.20
70550;DHT22;58101;48.658;2.328;2023-10-19T12:09:58;26.30;50.60
70550;DHT22;58101;48.658;2.328;2023-10-19T12:12:23;25.80;51.80
70550;DHT22;58101;48.658;2.328;2023-10-19T12:14:49;25.30;52.70
70550;DHT22;58101;48.658;2.328;2023-10-19T12:17:15;24.40;55.30
70550;DHT22;58101;48.658;2.328;2023-10-19T12:19:43;23.80;58.60
70550;DHT22;58101;48.658;2.328;2023-10-19T12:22:08;23.20;61.50
70550;DHT22;58101;48.658;2.328;2023-10-19T12:24:34;23.00;65.00
70550;DHT22;58101;48.658;2.328;2023-10-19T12:27:00;22.80;66.60
70550;DHT22;58101;48.658;2.328;2023-10-19T12:29:25;22.70;68.30
70550;DHT22;58101;48.658;2.328;2023-10-19T12:31:51;23.00;69.80
70550;DHT22;58101;48.658;2.328;2023-10-19T12:34:17;23.60;67.60
70550;DHT22;58101;48.658;2.328;2023-10-19T12:36:42;23.70;65.10
70550;DHT22;58101;48.658;2.328;2023-10-19T12:39:11;23.50;66.50
70550;DHT22;58101;48.658;2.328;2023-10-19T12:41:57;23.40;67.00
70550;DHT22;58101;48.658;2.328;2023-10-19T12:44:23;23.80;65.00
70550;DHT22;58101;48.658;2.328;2023-10-19T12:46:48;24.30;64.40
70550;DHT22;58101;48.658;2.328;2023-10-19T12:49:14;24.70;62.40
70550;DHT22;58101;48.658;2.328;2023-10-19T12:51:41;25.10;60.70
70550;DHT22;58101;48.658;2.328;2023-10-19T12:54:07;25.30;57.70
70550;DHT22;58101;48.658;2.328;2023-10-19T12:56:35;25.40;57.70
70550;DHT22;58101;48.658;2.328;2023-10-19T12:59:01;25.20;58.30
70550;DHT22;58101;48.658;2.328;2023-10-19T13:01:27;24.70;58.80
70550;DHT22;58101;48.658;2.328;2023-10-19T13:03:53;24.40;59.60
70550;DHT22;58101;48.658;2.328;2023-10-19T13:06:19;24.00;62.50
70550;DHT22;58101;48.658;2.328;2023-10-19T13:08:45;23.70;59.10
70550;DHT22;58101;48.658;2.328;2023-10-19T13:11:11;23.40;59.80
70550;DHT22;58101;48.658;2.328;2023-10-19T13:13:40;23.20;62.00
70550;DHT22;58101;48.658;2.328;2023-10-19T13:16:05;23.00;62.10
70550;DHT22;58101;48.658;2.328;2023-10-19T13:18:32;22.90;62.60
70550;DHT22;58101;48.658;2.328;2023-10-19T13:21:00;22.80;62.80
70550;DHT22;58101;48.658;2.328;2023-10-19T13:23:31;22.80;63.10
70550;DHT22;58101;48.658;2.328;2023-10-19T13:26:04;22.70;64.30
70550;DHT22;58101;48.658;2.328;2023-10-19T13:28:32;22.70;64.30
70550;DHT22;58101;48.658;2.328;2023-10-19T13:30:58;22.70;64.30
70550;DHT22;58101;48.658;2.328;2023-10-19T13:33:23;22.70;65.20
70550;DHT22;58101;48.658;2.328;2023-10-19T13:35:53;22.70;65.40
70550;DHT22;58101;48.658;2.328;2023-10-19T13:38:19;22.70;65.50
70550;DHT22;58101;48.658;2.328;2023-10-19T13:40:48;22.70;66.40
70550;DHT22;58101;48.658;2.328;2023-10-19T13:43:16;22.60;65.80
70550;DHT22;58101;48.658;2.328;2023-10-19T13:45:45;22.60;67.20
70550;DHT22;58101;48.658;2.328;2023-10-19T13:48:12;22.60;66.80
70550;DHT22;58101;48.658;2.328;2023-10-19T13:50:45;22.70;67.20
70550;DHT22;58101;48.658;2.328;2023-10-19T13:53:14;22.80;67.80
70550;DHT22;58101;48.658;2.328;2023-10-19T13:55:40;22.90;65.70
70550;DHT22;58101;48.658;2.328;2023-10-19T13:58:06;22.90;64.50
70550;DHT22;58101;48.658;2.328;2023-10-19T14:00:32;22.90;65.30
70550;DHT22;58101;48.658;2.328;2023-10-19T14:03:06;22.90;63.20
70550;DHT22;58101;48.658;2.328;2023-10-19T14:05:39;22.80;64.00
70550;DHT22;58101;48.658;2.328;2023-10-19T14:08:06;22.70;65.90
70550;DHT22;58101;48.658;2.328;2023-10-19T14:10:33;22.80;64.80
70550;DHT22;58101;48.658;2.328;2023-10-19T14:12:59;22.80;64.00
70550;DHT22;58101;48.658;2.328;2023-10-19T14:15:25;22.70;64.30
70550;DHT22;58101;48.658;2.328;2023-10-19T14:17:56;22.50;65.10
70550;DHT22;58101;48.658;2.328;2023-10-19T14:20:24;22.40;67.60
70550;DHT22;58101;48.658;2.328;2023-10-19T14:22:49;22.30;68.00
70550;DHT22;58101;48.658;2.328;2023-10-19T14:25:15;22.20;69.30
70550;DHT22;58101;48.658;2.328;2023-10-19T14:27:45;22.20;69.70
70550;DHT22;58101;48.658;2.328;2023-10-19T14:30:18;22.10;69.20
70550;DHT22;58101;48.658;2.328;2023-10-19T14:32:47;22.10;72.20
70550;DHT22;58101;48.658;2.328;2023-10-19T14:35:15;22.00;71.90
70550;DHT22;58101;48.658;2.328;2023-10-19T14:37:42;21.90;74.00
70550;DHT22;58101;48.658;2.328;2023-10-19T14:40:19;21.90;76.00
70550;DHT22;58101;48.658;2.328;2023-10-19T14:42:47;21.80;76.70
70550;DHT22;58101;48.658;2.328;2023-10-19T14:45:16;21.70;75.10
70550;DHT22;58101;48.658;2.328;2023-10-19T14:47:53;21.60;76.20
70550;DHT22;58101;48.658;2.328;2023-10-19T14:50:23;21.60;73.80
70550;DHT22;58101;48.658;2.328;2023-10-19T14:52:50;21.50;72.80
70550;DHT22;58101;48.658;2.328;2023-10-19T14:55:17;21.40;71.30
70550;DHT22;58101;48.658;2.328;2023-10-19T14:57:44;21.40;70.00
70550;DHT22;58101;48.658;2.328;2023-10-19T15:00:11;21.30;68.60
70550;DHT22;58101;48.658;2.328;2023-10-19T15:02:43;21.30;70.10
70550;DHT22;58101;48.658;2.328;2023-10-19T15:05:09;21.20;70.20
70550;DHT22;58101;48.658;2.328;2023-10-19T15:07:42;21.20;71.30
70550;DHT22;58101;48.658;2.328;2023-10-19T15:10:10;21.20;72.40
70550;DHT22;58101;48.658;2.328;2023-10-19T15:12:39;21.30;71.40
70550;DHT22;58101;48.658;2.328;2023-10-19T15:15:09;21.30;70.40
70550;DHT22;58101;48.658;2.328;2023-10-19T15:17:42;21.30;70.30
70550;DHT22;58101;48.658;2.328;2023-10-19T15:20:10;21.10;72.60
70550;DHT22;58101;48.658;2.328;2023-10-19T15:22:37;21.00;74.20
70550;DHT22;58101;48.658;2.328;2023-10-19T15:25:03;21.00;74.50
70550;DHT22;58101;48.658;2.328;2023-10-19T15:27:30;20.90;75.30
70550;DHT22;58101;48.658;2.328;2023-10-19T15:29:56;20.80;78.10
70550;DHT22;58101;48.658;2.328;2023-10-19T15:32:22;20.70;79.30
70550;DHT22;58101;48.658;2.328;2023-10-19T15:34:48;20.70;82.00
70550;DHT22;58101;48.658;2.328;2023-10-19T15:37:14;20.70;80.20
70550;DHT22;58101;48.658;2.328;2023-10-19T15:39:39;20.70;80.60
70550;DHT22;58101;48.658;2.328;2023-10-19T15:42:05;20.70;80.80
70550;DHT22;58101;48.658;2.328;2023-10-19T15:44:34;20.70;81.80
70550;DHT22;58101;48.658;2.328;2023-10-19T15:47:00;20.60;82.70
70550;DHT22;58101;48.658;2.328;2023-10-19T15:49:26;20.50;84.20
70550;DHT22;58101;48.658;2.328;2023-10-19T15:51:56;20.40;86.00
70550;DHT22;58101;48.658;2.328;2023-10-19T15:54:21;20.40;86.80
70550;DHT22;58101;48.658;2.328;2023-10-19T15:56:47;20.30;88.50